createdAt,value
2019-03-29T00:00:46.484Z,85.68
2019-03-29T00:03:12.278Z,85.71
2019-03-29T00:05:38.063Z,85.72
2019-03-29T00:08:03.857Z,85.78
2019-03-29T00:10:29.660Z,85.89
2019-03-29T00:12:55.466Z,85.77
2019-03-29T00:15:21.251Z,85.94
2019-03-29T00:17:47.032Z,86.12
2019-03-29T00:20:12.857Z,85.77
2019-03-29T00:22:38.649Z,85.82
2019-03-29T00:25:05.065Z,85.86
2019-03-29T00:27:30.872Z,86.08
2019-03-29T00:29:56.648Z,86.08
2019-03-29T00:32:22.447Z,86.02
2019-03-29T00:34:48.250Z,85.98
2019-03-29T00:37:14.067Z,85.56
2019-03-29T00:39:40.317Z,85.63
2019-03-29T00:42:06.902Z,85.49
2019-03-29T00:44:32.679Z,85.66
2019-03-29T00:46:58.477Z,85.47
2019-03-29T00:49:24.264Z,85.62
2019-03-29T00:51:50.948Z,85.78
2019-03-29T00:54:16.871Z,85.80
2019-03-29T00:56:42.667Z,85.93
2019-03-29T00:59:08.448Z,85.78
2019-03-29T01:01:34.244Z,86.21
2019-03-29T01:04:00.028Z,86.19
2019-03-29T01:06:25.818Z,86.49
2019-03-29T01:08:52.016Z,86.27
2019-03-29T01:11:17.814Z,86.45
2019-03-29T01:13:43.590Z,86.42
2019-03-29T01:16:09.377Z,86.60
2019-03-29T01:18:35.165Z,86.80
2019-03-29T01:21:01.016Z,86.68
2019-03-29T01:23:26.857Z,86.94
2019-03-29T01:25:52.636Z,87.00
2019-03-29T01:28:18.426Z,86.92
2019-03-29T01:30:44.200Z,86.97
2019-03-29T01:33:10.002Z,87.03
2019-03-29T01:35:36.099Z,86.95
2019-03-29T01:38:02.082Z,87.44
2019-03-29T01:40:27.865Z,87.44
2019-03-29T01:42:53.669Z,87.49
2019-03-29T01:45:20.050Z,87.54
2019-03-29T01:47:45.856Z,87.78
2019-03-29T01:50:11.732Z,87.78
2019-03-29T01:52:37.529Z,87.85
2019-03-29T01:55:04.911Z,87.85
2019-03-29T01:57:30.715Z,87.58
2019-03-29T01:59:56.492Z,87.58
2019-03-29T02:02:22.278Z,87.99
2019-03-29T02:04:48.075Z,88.01
2019-03-29T02:07:13.849Z,88.04
2019-03-29T02:09:39.647Z,88.09
2019-03-29T02:12:06.320Z,88.25
2019-03-29T02:14:35.437Z,88.45
2019-03-29T02:17:01.229Z,88.33
2019-03-29T02:19:27.062Z,88.33
2019-03-29T02:21:52.806Z,88.30
2019-03-29T02:24:18.619Z,88.23
2019-03-29T02:26:44.393Z,88.24
2019-03-29T02:29:10.954Z,88.31
2019-03-29T02:31:36.884Z,88.20
2019-03-29T02:34:02.669Z,88.20
2019-03-29T02:36:28.457Z,88.22
2019-03-29T02:38:56.223Z,88.25
2019-03-29T02:41:21.957Z,88.31
2019-03-29T02:43:47.758Z,88.31
2019-03-29T02:46:13.525Z,88.34
2019-03-29T02:48:39.318Z,88.44
2019-03-29T02:51:05.287Z,88.40
2019-03-29T02:53:31.227Z,88.37
2019-03-29T02:55:57.078Z,88.22
2019-03-29T02:58:22.897Z,88.29
2019-03-29T03:00:48.778Z,88.28
2019-03-29T03:03:14.556Z,88.42
2019-03-29T03:05:40.349Z,88.65
2019-03-29T03:08:06.123Z,88.23
2019-03-29T03:10:31.921Z,88.02
2019-03-29T03:12:57.736Z,87.88
2019-03-29T03:15:23.510Z,87.84
2019-03-29T03:17:49.286Z,87.75
2019-03-29T03:20:15.992Z,87.47
2019-03-29T03:22:41.981Z,87.70
2019-03-29T03:25:08.096Z,87.70
2019-03-29T03:27:34.379Z,88.02
2019-03-29T03:30:00.442Z,87.86
2019-03-29T03:32:26.368Z,87.71
2019-03-29T03:34:52.160Z,87.71
2019-03-29T03:37:17.931Z,87.66
2019-03-29T03:39:43.732Z,87.60
2019-03-29T03:42:09.517Z,87.36
2019-03-29T03:44:35.315Z,87.44
2019-03-29T03:47:01.099Z,87.45
2019-03-29T03:49:26.904Z,87.76
2019-03-29T03:51:52.684Z,87.87
2019-03-29T03:54:18.464Z,87.88
2019-03-29T03:56:44.852Z,87.76
2019-03-29T03:59:10.833Z,87.90
2019-03-29T04:01:36.624Z,87.93
2019-03-29T04:04:02.417Z,87.85
2019-03-29T04:06:28.197Z,87.79
2019-03-29T04:08:53.976Z,87.73
2019-03-29T04:11:19.771Z,87.91
2019-03-29T04:13:45.547Z,88.03
2019-03-29T04:16:11.365Z,87.92
2019-03-29T04:18:37.241Z,87.95
2019-03-29T04:21:03.044Z,87.85
2019-03-29T04:23:28.818Z,87.92
2019-03-29T04:25:54.727Z,88.06
2019-03-29T04:28:20.509Z,87.96
2019-03-29T04:30:46.301Z,88.06
2019-03-29T04:33:12.090Z,88.10
2019-03-29T04:35:37.878Z,88.26
2019-03-29T04:38:03.675Z,88.47
2019-03-29T04:40:29.487Z,88.41
2019-03-29T04:42:56.085Z,88.34
2019-03-29T04:45:21.867Z,88.20
2019-03-29T04:47:47.661Z,88.36
2019-03-29T04:50:13.446Z,88.30
2019-03-29T04:52:39.251Z,88.07
2019-03-29T04:55:05.245Z,88.26
2019-03-29T04:57:31.037Z,88.42
2019-03-29T04:59:56.831Z,88.29
2019-03-29T05:02:22.648Z,88.24
2019-03-29T05:04:48.430Z,88.28
2019-03-29T05:07:14.225Z,88.32
2019-03-29T05:09:40.019Z,88.29
2019-03-29T05:12:05.923Z,88.20
2019-03-29T05:14:31.698Z,88.26
2019-03-29T05:16:57.597Z,88.43
2019-03-29T05:19:23.375Z,88.44
2019-03-29T05:21:49.175Z,88.53
2019-03-29T05:24:14.945Z,88.26
2019-03-29T05:26:40.763Z,87.94
2019-03-29T05:29:06.540Z,87.91
2019-03-29T05:31:32.327Z,87.90
2019-03-29T05:33:58.120Z,87.94
2019-03-29T05:36:23.916Z,87.83
2019-03-29T05:38:49.706Z,87.83
2019-03-29T05:41:15.496Z,87.76
2019-03-29T05:43:41.301Z,87.82
2019-03-29T05:46:07.072Z,87.83
2019-03-29T05:48:32.879Z,87.81
2019-03-29T05:50:58.659Z,87.84
2019-03-29T05:53:24.469Z,87.67
2019-03-29T05:55:50.249Z,87.50
2019-03-29T05:58:16.041Z,87.57
2019-03-29T06:00:41.844Z,87.65
2019-03-29T06:03:10.029Z,87.61
2019-03-29T06:05:35.422Z,87.53
2019-03-29T06:08:01.208Z,87.39
2019-03-29T06:10:26.988Z,87.47
2019-03-29T06:12:52.800Z,87.28
2019-03-29T06:15:18.693Z,87.28
2019-03-29T06:17:48.944Z,87.09
2019-03-29T06:20:12.325Z,87.33
2019-03-29T06:22:38.111Z,87.26
2019-03-29T06:25:05.365Z,87.09
2019-03-29T06:27:31.218Z,86.99
2019-03-29T06:29:57.011Z,86.96
2019-03-29T06:32:22.904Z,86.83
2019-03-29T06:34:48.698Z,86.63
2019-03-29T06:37:15.784Z,86.63
2019-03-29T06:39:41.997Z,86.43
2019-03-29T06:42:07.899Z,85.75
2019-03-29T06:44:33.691Z,85.75
2019-03-29T06:46:59.555Z,85.57
2019-03-29T06:49:25.405Z,84.88
2019-03-29T06:51:51.166Z,84.79
2019-03-29T06:54:16.959Z,84.90
2019-03-29T06:56:42.739Z,84.65
2019-03-29T06:59:08.537Z,84.57
2019-03-29T07:01:34.321Z,84.63
2019-03-29T07:04:00.130Z,84.69
2019-03-29T07:06:25.922Z,84.43
2019-03-29T07:08:51.704Z,84.26
2019-03-29T07:11:18.193Z,84.03
2019-03-29T07:13:56.711Z,83.86
2019-03-29T07:16:11.825Z,83.54
2019-03-29T07:18:37.603Z,83.54
2019-03-29T07:21:03.407Z,83.48
2019-03-29T07:23:29.183Z,83.31
2019-03-29T07:25:56.570Z,83.16
2019-03-29T07:28:22.472Z,82.29
2019-03-29T07:30:48.267Z,82.51
2019-03-29T07:33:14.203Z,81.89
2019-03-29T07:35:39.961Z,81.79
2019-03-29T07:38:05.734Z,80.75
2019-03-29T07:40:31.531Z,79.39
2019-03-29T07:42:57.323Z,79.13
2019-03-29T07:45:23.142Z,79.12
2019-03-29T07:47:48.925Z,78.57
2019-03-29T07:50:14.721Z,77.83
2019-03-29T07:52:40.501Z,77.30
2019-03-29T07:55:06.697Z,76.57
2019-03-29T07:57:32.485Z,75.49
2019-03-29T07:59:58.295Z,75.49
2019-03-29T08:02:24.089Z,73.38
2019-03-29T08:04:50.469Z,73.07
2019-03-29T08:07:27.097Z,73.26
2019-03-29T08:09:44.886Z,73.26
2019-03-29T08:12:10.658Z,72.24
2019-03-29T08:14:36.443Z,71.28
2019-03-29T08:17:02.241Z,71.55
2019-03-29T08:19:28.029Z,71.87
2019-03-29T08:21:53.833Z,71.51
2019-03-29T08:24:19.604Z,70.96
2019-03-29T08:26:45.481Z,70.71
2019-03-29T08:29:11.291Z,70.40
2019-03-29T08:31:37.092Z,70.06
2019-03-29T08:34:02.899Z,69.60
2019-03-29T08:36:28.691Z,68.92
2019-03-29T08:38:54.464Z,68.28
2019-03-29T08:41:20.273Z,68.91
2019-03-29T08:43:46.061Z,68.98
2019-03-29T08:46:11.851Z,67.89
2019-03-29T08:48:37.646Z,67.20
2019-03-29T08:51:03.435Z,66.64
2019-03-29T08:53:29.238Z,66.86
2019-03-29T08:55:55.054Z,66.95
2019-03-29T08:58:20.835Z,66.36
2019-03-29T09:00:46.629Z,66.12
2019-03-29T09:03:12.430Z,65.66
2019-03-29T09:05:39.425Z,64.79
2019-03-29T09:08:05.503Z,64.96
2019-03-29T09:10:31.291Z,65.52
2019-03-29T09:12:57.088Z,65.48
2019-03-29T09:15:22.882Z,66.36
2019-03-29T09:17:48.672Z,65.10
2019-03-29T09:20:14.460Z,64.68
2019-03-29T09:22:40.260Z,65.55
2019-03-29T09:25:06.158Z,66.05
2019-03-29T09:27:32.346Z,65.97
2019-03-29T09:29:58.155Z,66.79
2019-03-29T09:32:23.951Z,65.80
2019-03-29T09:34:49.729Z,66.56
2019-03-29T09:37:15.528Z,66.56
2019-03-29T09:39:41.308Z,66.32
2019-03-29T09:42:09.543Z,65.83
2019-03-29T09:44:34.817Z,66.05
2019-03-29T09:47:00.619Z,64.94
2019-03-29T09:49:26.410Z,65.24
2019-03-29T09:51:52.218Z,64.81
2019-03-29T09:54:20.385Z,64.04
2019-03-29T09:56:48.401Z,65.12
2019-03-29T09:59:16.277Z,64.45
2019-03-29T10:01:41.088Z,63.94
2019-03-29T10:04:06.890Z,64.10
2019-03-29T10:06:32.690Z,63.46
2019-03-29T10:08:58.467Z,61.85
2019-03-29T10:11:24.275Z,62.36
2019-03-29T10:13:50.065Z,59.59
2019-03-29T10:16:15.873Z,59.44
2019-03-29T10:18:41.688Z,60.08
2019-03-29T10:21:07.598Z,59.39
2019-03-29T10:23:33.394Z,61.05
2019-03-29T10:25:59.219Z,60.58
2019-03-29T10:28:25.041Z,60.58
2019-03-29T10:30:50.890Z,60.50
2019-03-29T10:33:16.695Z,60.62
2019-03-29T10:35:51.547Z,61.20
2019-03-29T10:38:10.183Z,61.23
2019-03-29T10:40:35.995Z,61.71
2019-03-29T10:43:01.811Z,62.41
2019-03-29T10:45:27.614Z,61.25
2019-03-29T10:47:53.407Z,60.77
2019-03-29T10:50:19.211Z,61.11
2019-03-29T10:52:45.080Z,61.88
2019-03-29T10:55:10.865Z,60.51
2019-03-29T10:57:36.660Z,61.26
2019-03-29T11:00:05.649Z,60.88
2019-03-29T11:02:31.454Z,61.32
2019-03-29T11:04:57.235Z,60.86
2019-03-29T11:07:23.019Z,61.00
2019-03-29T11:09:48.799Z,61.04
2019-03-29T11:12:14.583Z,59.43
2019-03-29T11:14:40.369Z,60.19
2019-03-29T11:17:06.162Z,60.38
2019-03-29T11:19:31.961Z,60.57
2019-03-29T11:21:57.820Z,59.84
2019-03-29T11:24:23.708Z,60.96
2019-03-29T11:26:49.547Z,59.69
2019-03-29T11:29:15.336Z,59.33
2019-03-29T11:31:41.115Z,59.06
2019-03-29T11:34:06.919Z,58.21
2019-03-29T11:36:32.860Z,59.02
2019-03-29T11:38:58.661Z,59.46
2019-03-29T11:41:24.442Z,58.94
2019-03-29T11:43:50.232Z,58.38
2019-03-29T11:46:16.012Z,59.38
2019-03-29T11:48:41.816Z,57.98
2019-03-29T11:51:18.655Z,58.05
2019-03-29T11:53:35.430Z,57.32
2019-03-29T11:56:01.241Z,57.43
2019-03-29T11:58:27.046Z,57.78
2019-03-29T12:00:52.847Z,56.84
2019-03-29T12:03:18.643Z,57.42
2019-03-29T12:05:44.452Z,57.71
2019-03-29T12:08:10.247Z,59.02
2019-03-29T12:10:36.052Z,57.92
2019-03-29T12:13:01.836Z,58.27
2019-03-29T12:15:27.684Z,57.25
2019-03-29T12:17:53.468Z,56.31
2019-03-29T12:20:19.266Z,56.15
2019-03-29T12:22:45.058Z,57.14
2019-03-29T12:25:10.853Z,56.25
2019-03-29T12:27:37.463Z,56.03
2019-03-29T12:30:05.265Z,55.63
2019-03-29T12:32:31.054Z,55.56
2019-03-29T12:34:56.847Z,54.79
2019-03-29T12:37:22.649Z,54.99
2019-03-29T12:39:48.455Z,54.26
2019-03-29T12:42:14.230Z,55.04
2019-03-29T12:44:40.287Z,55.81
2019-03-29T12:47:06.074Z,55.39
2019-03-29T12:49:31.873Z,55.53
2019-03-29T12:51:57.677Z,56.22
2019-03-29T12:54:23.459Z,54.98
2019-03-29T12:56:49.247Z,55.34
2019-03-29T12:59:15.136Z,55.14
2019-03-29T13:01:40.942Z,57.68
2019-03-29T13:04:09.591Z,56.19
2019-03-29T13:06:34.506Z,54.46
2019-03-29T13:09:00.319Z,53.70
2019-03-29T13:11:26.114Z,53.99
2019-03-29T13:13:51.892Z,54.50
2019-03-29T13:16:17.682Z,53.95
2019-03-29T13:18:43.482Z,53.29
2019-03-29T13:21:09.283Z,54.63
2019-03-29T13:23:35.051Z,53.41
2019-03-29T13:26:02.589Z,54.36
2019-03-29T13:28:28.478Z,54.78
2019-03-29T13:30:54.271Z,53.75
2019-03-29T13:33:20.642Z,54.78
2019-03-29T13:35:46.658Z,54.86
2019-03-29T13:38:12.503Z,55.60
2019-03-29T13:40:38.299Z,56.65
2019-03-29T13:43:04.096Z,55.76
2019-03-29T13:45:29.999Z,55.80
2019-03-29T13:47:55.844Z,55.39
2019-03-29T13:50:21.642Z,54.71
2019-03-29T13:52:47.508Z,54.94
2019-03-29T13:55:13.840Z,55.21
2019-03-29T13:57:39.615Z,56.40
2019-03-29T14:00:08.310Z,56.02
2019-03-29T14:02:34.099Z,55.79
2019-03-29T14:04:59.876Z,56.57
2019-03-29T14:07:25.665Z,56.38
2019-03-29T14:09:51.463Z,56.73
2019-03-29T14:12:17.263Z,57.03
2019-03-29T14:14:43.049Z,58.06
2019-03-29T14:17:08.850Z,58.18
2019-03-29T14:19:34.627Z,58.53
2019-03-29T14:22:00.419Z,58.85
2019-03-29T14:24:26.224Z,58.82
2019-03-29T14:26:52.058Z,60.50
2019-03-29T14:29:17.838Z,59.56
2019-03-29T14:31:43.645Z,59.65
2019-03-29T14:34:09.512Z,59.69
2019-03-29T14:36:35.267Z,59.36
2019-03-29T14:39:01.051Z,60.36
2019-03-29T14:41:26.830Z,60.26
2019-03-29T14:43:52.622Z,60.52
2019-03-29T14:46:18.430Z,60.30
2019-03-29T14:48:44.253Z,60.24
2019-03-29T14:51:10.392Z,60.57
2019-03-29T14:53:36.143Z,61.10
2019-03-29T14:56:01.995Z,61.16
2019-03-29T14:58:27.785Z,61.34
2019-03-29T15:00:53.564Z,61.71
2019-03-29T15:03:19.546Z,62.17
2019-03-29T15:05:45.326Z,61.39
2019-03-29T15:08:11.135Z,61.65
2019-03-29T15:10:36.907Z,61.58
2019-03-29T15:13:02.819Z,60.66
2019-03-29T15:15:28.592Z,60.87
2019-03-29T15:17:54.382Z,59.20
2019-03-29T15:20:21.210Z,59.01
2019-03-29T15:22:47.002Z,59.57
2019-03-29T15:25:12.787Z,60.20
2019-03-29T15:27:38.602Z,60.08
2019-03-29T15:30:05.922Z,60.19
2019-03-29T15:32:31.712Z,60.40
2019-03-29T15:34:57.519Z,60.11
2019-03-29T15:37:23.314Z,60.32
2019-03-29T15:39:49.107Z,60.77
2019-03-29T15:42:14.893Z,61.47
2019-03-29T15:44:40.733Z,61.21
2019-03-29T15:47:06.499Z,61.57
2019-03-29T15:49:32.301Z,61.78
2019-03-29T15:51:58.086Z,61.98
2019-03-29T15:54:23.881Z,62.06
2019-03-29T15:56:49.679Z,62.36
2019-03-29T15:59:15.470Z,62.26
2019-03-29T16:01:41.256Z,62.48
2019-03-29T16:04:07.055Z,62.35
2019-03-29T16:06:32.850Z,62.97
2019-03-29T16:08:58.643Z,63.22
2019-03-29T16:11:24.431Z,63.68
2019-03-29T16:13:50.311Z,63.80
2019-03-29T16:16:16.106Z,63.96
2019-03-29T16:18:41.908Z,64.31
2019-03-29T16:21:07.712Z,64.16
2019-03-29T16:23:33.726Z,64.16
2019-03-29T16:25:59.536Z,64.24
2019-03-29T16:28:25.832Z,64.53
2019-03-29T16:30:51.632Z,64.42
2019-03-29T16:33:17.575Z,64.99
2019-03-29T16:35:43.375Z,65.04
2019-03-29T16:38:09.156Z,65.29
2019-03-29T16:40:34.970Z,65.30
2019-03-29T16:43:00.763Z,65.35
2019-03-29T16:45:26.555Z,65.56
2019-03-29T16:47:52.339Z,65.83
2019-03-29T16:50:18.458Z,66.15
2019-03-29T16:52:44.222Z,66.36
2019-03-29T16:55:13.763Z,66.68
2019-03-29T16:57:37.739Z,66.68
2019-03-29T17:00:12.016Z,66.95
2019-03-29T17:02:36.485Z,67.34
2019-03-29T17:05:04.070Z,67.34
2019-03-29T17:07:30.121Z,68.13
2019-03-29T17:09:55.916Z,68.13
2019-03-29T17:12:21.707Z,68.41
2019-03-29T17:14:47.518Z,68.69
2019-03-29T17:17:13.300Z,69.15
2019-03-29T17:19:39.099Z,69.36
2019-03-29T17:22:05.339Z,69.72
2019-03-29T17:24:31.401Z,70.12
2019-03-29T17:26:57.221Z,70.27
2019-03-29T17:29:23.023Z,70.46
2019-03-29T17:31:48.862Z,70.67
2019-03-29T17:34:14.647Z,70.94
2019-03-29T17:36:40.445Z,71.28
2019-03-29T17:39:06.372Z,71.75
2019-03-29T17:41:32.155Z,71.75
2019-03-29T17:43:57.941Z,72.00
2019-03-29T17:46:23.744Z,72.35
2019-03-29T17:48:49.526Z,72.46
2019-03-29T17:51:15.329Z,72.73
2019-03-29T17:53:41.119Z,73.04
2019-03-29T17:56:06.922Z,73.15
2019-03-29T17:58:32.694Z,73.44
2019-03-29T18:00:58.484Z,73.55
2019-03-29T18:03:24.275Z,73.70
2019-03-29T18:05:50.068Z,73.77
2019-03-29T18:08:15.879Z,73.83
2019-03-29T18:10:41.757Z,73.99
2019-03-29T18:13:07.555Z,74.32
2019-03-29T18:15:33.375Z,74.51
2019-03-29T18:17:59.168Z,74.81
2019-03-29T18:20:24.956Z,74.59
2019-03-29T18:22:50.754Z,75.19
2019-03-29T18:25:16.547Z,75.32
2019-03-29T18:27:42.365Z,75.09
2019-03-29T18:30:09.848Z,75.15
2019-03-29T18:32:35.762Z,76.12
2019-03-29T18:35:02.867Z,76.73
2019-03-29T18:37:28.660Z,76.67
2019-03-29T18:39:55.274Z,76.44
2019-03-29T18:42:21.158Z,76.67
2019-03-29T18:44:47.132Z,77.05
2019-03-29T18:47:12.946Z,76.65
2019-03-29T18:49:38.725Z,76.68
2019-03-29T18:52:04.520Z,77.17
2019-03-29T18:54:30.312Z,77.28
2019-03-29T18:56:56.104Z,77.52
2019-03-29T18:59:21.893Z,78.12
2019-03-29T19:01:47.701Z,79.60
2019-03-29T19:04:13.480Z,79.53
2019-03-29T19:06:39.290Z,79.43
2019-03-29T19:09:05.085Z,79.52
2019-03-29T19:11:30.882Z,79.81
2019-03-29T19:13:56.675Z,79.42
2019-03-29T19:16:22.486Z,78.62
2019-03-29T19:18:48.274Z,78.94
2019-03-29T19:21:14.071Z,79.09
2019-03-29T19:23:39.862Z,79.21
2019-03-29T19:26:05.660Z,79.26
2019-03-29T19:28:31.463Z,79.22
2019-03-29T19:30:57.249Z,79.20
2019-03-29T19:33:27.522Z,79.47
2019-03-29T19:35:53.303Z,79.71
2019-03-29T19:38:19.103Z,80.56
2019-03-29T19:40:44.890Z,80.94
2019-03-29T19:43:10.702Z,81.81
2019-03-29T19:45:36.479Z,82.29
2019-03-29T19:48:02.325Z,81.48
2019-03-29T19:50:28.177Z,81.21
2019-03-29T19:52:53.930Z,81.20
2019-03-29T19:55:19.777Z,81.41
2019-03-29T19:57:46.625Z,81.21
2019-03-29T20:00:13.396Z,81.19
2019-03-29T20:02:39.268Z,81.19
2019-03-29T20:05:08.900Z,81.41
2019-03-29T20:07:34.672Z,81.72
2019-03-29T20:10:00.470Z,81.46
2019-03-29T20:12:26.262Z,81.70
2019-03-29T20:14:52.063Z,81.67
2019-03-29T20:17:27.462Z,81.63
2019-03-29T20:19:45.563Z,82.33
2019-03-29T20:22:11.362Z,82.33
2019-03-29T20:24:37.156Z,82.37
2019-03-29T20:27:02.959Z,82.10
2019-03-29T20:29:28.759Z,82.30
2019-03-29T20:31:54.546Z,82.67
2019-03-29T20:34:20.366Z,83.06
2019-03-29T20:36:46.143Z,82.72
2019-03-29T20:39:11.916Z,82.63
2019-03-29T20:41:37.714Z,82.96
2019-03-29T20:44:03.501Z,82.59
2019-03-29T20:46:29.295Z,82.43
2019-03-29T20:48:55.080Z,82.43
2019-03-29T20:51:20.885Z,83.02
2019-03-29T20:53:46.687Z,83.33
2019-03-29T20:56:12.499Z,83.28
2019-03-29T20:58:38.274Z,83.41
2019-03-29T21:01:04.070Z,83.27
2019-03-29T21:03:29.866Z,83.40
2019-03-29T21:05:55.656Z,83.14
2019-03-29T21:08:21.430Z,82.97
2019-03-29T21:10:55.478Z,83.21
2019-03-29T21:13:14.917Z,83.30
2019-03-29T21:15:40.728Z,83.78
2019-03-29T21:18:06.510Z,83.07
2019-03-29T21:20:32.307Z,83.06
2019-03-29T21:22:58.098Z,83.54
2019-03-29T21:25:23.909Z,83.42
2019-03-29T21:27:49.718Z,83.72
2019-03-29T21:30:16.117Z,83.84
2019-03-29T21:32:41.915Z,84.29
2019-03-29T21:35:08.013Z,83.76
2019-03-29T21:37:34.827Z,83.84
2019-03-29T21:40:00.609Z,83.82
2019-03-29T21:42:26.394Z,84.64
2019-03-29T21:44:52.183Z,84.45
2019-03-29T21:47:17.979Z,84.27
2019-03-29T21:49:43.799Z,84.56
2019-03-29T21:52:09.567Z,84.41
2019-03-29T21:54:35.363Z,84.57
2019-03-29T21:57:01.152Z,85.06
2019-03-29T21:59:26.934Z,85.14
2019-03-29T22:01:52.730Z,85.29
2019-03-29T22:04:18.516Z,84.67
2019-03-29T22:06:44.330Z,85.10
2019-03-29T22:09:10.126Z,85.33
2019-03-29T22:11:35.917Z,85.11
2019-03-29T22:14:01.700Z,84.94
2019-03-29T22:16:27.506Z,85.13
2019-03-29T22:18:53.317Z,85.95
2019-03-29T22:21:19.095Z,85.59
2019-03-29T22:23:44.886Z,85.52
2019-03-29T22:26:10.666Z,85.07
2019-03-29T22:28:36.489Z,85.47
2019-03-29T22:31:02.294Z,85.34
2019-03-29T22:33:28.087Z,85.42
2019-03-29T22:35:53.866Z,84.98
2019-03-29T22:38:19.658Z,85.51
2019-03-29T22:40:45.540Z,85.67
2019-03-29T22:43:11.334Z,85.73
2019-03-29T22:45:37.113Z,85.62
2019-03-29T22:48:02.927Z,85.53
2019-03-29T22:50:28.725Z,85.33
2019-03-29T22:52:54.767Z,85.47
2019-03-29T22:55:20.608Z,85.24
2019-03-29T22:57:46.414Z,85.53
2019-03-29T23:00:21.452Z,85.44
2019-03-29T23:02:47.259Z,85.65
2019-03-29T23:05:13.035Z,85.94
2019-03-29T23:07:38.825Z,85.67
2019-03-29T23:10:04.822Z,85.54
2019-03-29T23:12:30.710Z,85.94
2019-03-29T23:14:56.498Z,85.97
2019-03-29T23:17:22.282Z,86.07
2019-03-29T23:19:48.097Z,85.74
2019-03-29T23:22:13.904Z,85.82
2019-03-29T23:24:39.705Z,85.90
2019-03-29T23:27:05.544Z,85.66
2019-03-29T23:29:31.331Z,85.28
2019-03-29T23:31:57.111Z,85.69
2019-03-29T23:34:22.911Z,86.21
2019-03-29T23:36:48.710Z,85.65
2019-03-29T23:39:14.504Z,86.05
2019-03-29T23:41:40.303Z,85.75
2019-03-29T23:44:06.089Z,85.58
2019-03-29T23:46:31.879Z,85.51
2019-03-29T23:48:57.667Z,85.67
2019-03-29T23:51:23.460Z,86.23
2019-03-29T23:53:49.257Z,85.56
2019-03-29T23:56:15.065Z,86.27
2019-03-29T23:58:40.870Z,86.22
